Time;durP1;ratioP1;P1;durP2;ratioP2;P2;SDS_P1;SDS_P2;PMS_P1;PMS_P2;Temp;Humidity;BMP_temperature;BMP_pressure;BME280_temperature;BME280_humidity;BME280_pressure;Samples;Min_cycle;Max_cycle;Signal;HPM_P1;HPM_P2
2023/07/02 00:01:01;;;;;;;5.97;4.80;;;;;;;;;;6177521;28;20192;-68
2023/07/02 00:04:02;;;;;;;5.33;4.70;;;;;;;;;;6171902;28;20197;-68
2023/07/02 00:07:04;;;;;;;5.00;4.47;;;;;;;;;;6163352;28;20216;-68
2023/07/02 00:10:05;;;;;;;5.10;4.60;;;;;;;;;;6172133;28;20198;-68
2023/07/02 00:13:06;;;;;;;5.87;4.13;;;;;;;;;;6170185;28;20196;-68
2023/07/02 00:16:08;;;;;;;5.10;4.60;;;;;;;;;;6189997;28;20297;-68
2023/07/02 00:19:09;;;;;;;6.03;5.20;;;;;;;;;;6208642;28;20282;-68
2023/07/02 00:22:10;;;;;;;7.60;5.07;;;;;;;;;;6192368;28;20189;-68
2023/07/02 00:25:13;;;;;;;5.87;4.73;;;;;;;;;;6176226;28;20208;-68
2023/07/02 00:28:14;;;;;;;5.07;4.47;;;;;;;;;;6189242;28;20279;-68
2023/07/02 00:31:15;;;;;;;7.97;4.67;;;;;;;;;;6168517;28;20199;-68
2023/07/02 00:34:16;;;;;;;5.53;4.63;;;;;;;;;;6182637;28;20221;-68
2023/07/02 00:37:17;;;;;;;5.17;4.70;;;;;;;;;;6178354;28;20250;-68
2023/07/02 00:40:18;;;;;;;8.90;5.00;;;;;;;;;;6179378;28;20279;-68
2023/07/02 00:43:19;;;;;;;4.40;4.00;;;;;;;;;;6174307;28;20195;-68
2023/07/02 00:46:21;;;;;;;7.10;5.63;;;;;;;;;;6177821;28;20207;-68
2023/07/02 00:49:22;;;;;;;7.47;4.87;;;;;;;;;;6181186;28;20213;-68
2023/07/02 00:52:25;;;;;;;4.83;4.43;;;;;;;;;;6176291;28;20201;-68
2023/07/02 00:55:26;;;;;;;6.53;4.53;;;;;;;;;;6176635;28;20221;-68
2023/07/02 00:58:27;;;;;;;5.47;4.57;;;;;;;;;;6189446;28;20187;-68
2023/07/02 01:01:29;;;;;;;5.20;4.40;;;;;;;;;;6190901;28;20211;-68
2023/07/02 01:04:30;;;;;;;5.80;4.57;;;;;;;;;;6187853;28;20256;-68
2023/07/02 01:07:31;;;;;;;6.33;4.63;;;;;;;;;;6167518;28;20204;-68
2023/07/02 01:10:35;;;;;;;6.67;4.80;;;;;;;;;;6191965;28;20199;-68
2023/07/02 01:13:36;;;;;;;5.23;4.63;;;;;;;;;;6170610;28;20224;-68
2023/07/02 01:16:37;;;;;;;6.97;5.13;;;;;;;;;;6163804;28;20204;-68
2023/07/02 01:19:44;;;;;;;5.33;4.63;;;;;;;;;;6188323;28;20201;-68
2023/07/02 01:22:46;;;;;;;6.63;4.83;;;;;;;;;;6185454;28;20191;-69
2023/07/02 01:25:48;;;;;;;5.50;4.73;;;;;;;;;;6181059;28;20204;-68
2023/07/02 01:28:50;;;;;;;5.17;4.67;;;;;;;;;;6172318;28;20199;-68
2023/07/02 01:31:51;;;;;;;5.57;4.90;;;;;;;;;;6190556;28;20203;-68
2023/07/02 01:34:53;;;;;;;6.30;5.10;;;;;;;;;;6179726;28;20251;-68
2023/07/02 01:37:54;;;;;;;6.60;5.07;;;;;;;;;;6171847;28;20606;-68
2023/07/02 01:40:55;;;;;;;9.23;5.50;;;;;;;;;;6184697;28;20206;-68
2023/07/02 01:43:56;;;;;;;5.80;5.17;;;;;;;;;;6180008;28;20207;-68
2023/07/02 01:46:58;;;;;;;6.87;5.63;;;;;;;;;;6179254;28;20220;-68
2023/07/02 01:50:00;;;;;;;5.63;4.57;;;;;;;;;;6187648;28;20280;-68
2023/07/02 01:53:01;;;;;;;6.70;5.23;;;;;;;;;;6180460;28;20248;-68
2023/07/02 01:56:02;;;;;;;6.30;4.70;;;;;;;;;;6179260;28;20255;-68
2023/07/02 01:59:03;;;;;;;6.23;5.27;;;;;;;;;;6177573;28;20263;-68
2023/07/02 02:02:04;;;;;;;6.17;5.17;;;;;;;;;;6180097;28;20197;-68
2023/07/02 02:05:05;;;;;;;7.00;6.00;;;;;;;;;;6195474;28;20196;-68
2023/07/02 02:08:06;;;;;;;6.20;4.90;;;;;;;;;;6184157;28;20201;-68
2023/07/02 02:11:08;;;;;;;7.77;5.27;;;;;;;;;;6177401;28;20204;-68
2023/07/02 02:14:09;;;;;;;7.37;5.67;;;;;;;;;;6174527;28;20244;-68
2023/07/02 02:17:10;;;;;;;5.87;5.13;;;;;;;;;;6171406;28;20196;-68
2023/07/02 02:20:11;;;;;;;5.97;5.37;;;;;;;;;;6199112;28;20199;-68
2023/07/02 02:23:12;;;;;;;6.77;5.60;;;;;;;;;;6196688;28;20192;-68
2023/07/02 02:26:13;;;;;;;5.00;4.60;;;;;;;;;;6190088;28;20195;-68
2023/07/02 02:29:14;;;;;;;5.93;5.37;;;;;;;;;;6186305;28;20199;-68
2023/07/02 02:32:17;;;;;;;7.67;5.50;;;;;;;;;;6175321;28;20200;-68
2023/07/02 02:35:18;;;;;;;5.97;5.30;;;;;;;;;;6179066;28;20217;-68
2023/07/02 02:38:19;;;;;;;6.77;5.23;;;;;;;;;;6166844;28;20192;-68
2023/07/02 02:41:20;;;;;;;6.53;5.77;;;;;;;;;;6180649;28;20223;-68
2023/07/02 02:44:21;;;;;;;6.27;5.70;;;;;;;;;;6198298;28;20245;-68
2023/07/02 02:47:22;;;;;;;6.23;5.23;;;;;;;;;;6184647;28;20199;-68
2023/07/02 02:50:23;;;;;;;6.10;5.33;;;;;;;;;;6178437;28;20310;-68
2023/07/02 02:53:24;;;;;;;6.23;4.93;;;;;;;;;;6205990;28;20237;-68
2023/07/02 02:56:25;;;;;;;5.33;4.77;;;;;;;;;;6185317;28;20195;-68
2023/07/02 02:59:26;;;;;;;8.13;5.80;;;;;;;;;;6197717;28;20199;-68
2023/07/02 03:02:27;;;;;;;5.37;4.80;;;;;;;;;;6186026;28;20199;-68
2023/07/02 03:05:29;;;;;;;6.87;5.67;;;;;;;;;;6190720;28;20228;-68
2023/07/02 03:08:30;;;;;;;6.43;5.77;;;;;;;;;;6186486;28;20262;-68
2023/07/02 03:11:31;;;;;;;6.30;5.70;;;;;;;;;;6186331;28;20200;-68
2023/07/02 03:14:32;;;;;;;6.73;6.03;;;;;;;;;;6177937;28;20240;-68
2023/07/02 03:17:33;;;;;;;6.77;6.00;;;;;;;;;;6171477;28;20246;-68
2023/07/02 03:20:34;;;;;;;6.03;5.43;;;;;;;;;;6179003;28;20193;-68
2023/07/02 03:23:35;;;;;;;6.13;5.43;;;;;;;;;;6184412;28;20275;-68
2023/07/02 03:26:36;;;;;;;7.17;5.60;;;;;;;;;;6189534;28;20191;-68
2023/07/02 03:29:38;;;;;;;6.20;5.30;;;;;;;;;;6193698;28;20204;-68
2023/07/02 03:32:39;;;;;;;6.60;5.70;;;;;;;;;;6200636;28;20274;-68
2023/07/02 03:35:40;;;;;;;6.60;5.63;;;;;;;;;;6183737;28;20272;-68
2023/07/02 03:38:41;;;;;;;7.10;5.73;;;;;;;;;;6197035;28;20191;-68
2023/07/02 03:41:42;;;;;;;7.10;5.40;;;;;;;;;;6179060;28;20193;-68
2023/07/02 03:44:43;;;;;;;6.70;5.67;;;;;;;;;;6174208;28;20199;-68
2023/07/02 03:47:44;;;;;;;6.53;5.93;;;;;;;;;;6187018;28;20198;-68
2023/07/02 03:50:45;;;;;;;6.63;6.00;;;;;;;;;;6169321;28;20196;-68
2023/07/02 03:53:46;;;;;;;7.57;6.20;;;;;;;;;;6177998;28;20215;-68
2023/07/02 03:56:47;;;;;;;7.57;5.97;;;;;;;;;;6184728;28;20246;-68
2023/07/02 03:59:48;;;;;;;6.10;5.50;;;;;;;;;;6187443;28;20209;-68
2023/07/02 04:02:49;;;;;;;5.87;5.30;;;;;;;;;;6210817;28;20195;-68
2023/07/02 04:05:50;;;;;;;6.50;5.90;;;;;;;;;;6192031;28;20199;-68
2023/07/02 04:08:51;;;;;;;6.43;5.63;;;;;;;;;;6169687;28;20206;-68
2023/07/02 04:11:52;;;;;;;8.90;5.90;;;;;;;;;;6183525;28;20196;-68
2023/07/02 04:14:53;;;;;;;7.53;5.60;;;;;;;;;;6174974;28;20276;-68
2023/07/02 04:17:54;;;;;;;6.77;5.50;;;;;;;;;;6197467;28;20198;-68
2023/07/02 04:20:56;;;;;;;7.30;5.67;;;;;;;;;;6175457;28;20192;-68
2023/07/02 04:23:57;;;;;;;7.03;5.87;;;;;;;;;;6175843;28;20197;-68
2023/07/02 04:26:59;;;;;;;9.77;5.33;;;;;;;;;;6177322;28;20208;-68
2023/07/02 04:30:00;;;;;;;6.63;5.87;;;;;;;;;;6176875;28;20192;-68
2023/07/02 04:33:01;;;;;;;6.80;6.00;;;;;;;;;;6171803;28;20200;-68
2023/07/02 04:36:03;;;;;;;6.77;5.80;;;;;;;;;;6193973;28;20183;-68
2023/07/02 04:39:04;;;;;;;6.47;5.40;;;;;;;;;;6193808;28;20189;-68
2023/07/02 04:42:05;;;;;;;7.03;5.93;;;;;;;;;;6171035;28;20196;-68
2023/07/02 04:45:08;;;;;;;7.67;5.77;;;;;;;;;;6162577;28;20291;-68
2023/07/02 04:48:09;;;;;;;7.00;6.17;;;;;;;;;;6188015;28;20197;-68
2023/07/02 04:51:10;;;;;;;7.40;6.57;;;;;;;;;;6186598;28;20200;-68
2023/07/02 04:54:11;;;;;;;7.50;5.97;;;;;;;;;;6191797;28;20217;-68
2023/07/02 04:57:13;;;;;;;6.47;5.87;;;;;;;;;;6185614;28;20198;-68
2023/07/02 05:00:15;;;;;;;6.70;6.10;;;;;;;;;;6176674;28;20192;-68
2023/07/02 05:03:16;;;;;;;7.33;6.63;;;;;;;;;;6193832;28;20192;-68
2023/07/02 05:06:17;;;;;;;7.67;6.87;;;;;;;;;;6182864;28;20195;-68
2023/07/02 05:09:18;;;;;;;7.03;6.30;;;;;;;;;;6194237;28;20194;-68
2023/07/02 05:12:20;;;;;;;7.67;6.40;;;;;;;;;;6169855;28;20192;-68
2023/07/02 05:15:21;;;;;;;7.07;6.30;;;;;;;;;;6176949;28;20247;-68
2023/07/02 05:18:22;;;;;;;11.33;6.47;;;;;;;;;;6175574;28;20195;-68
2023/07/02 05:21:23;;;;;;;7.70;7.00;;;;;;;;;;6182344;28;20380;-68
2023/07/02 05:24:24;;;;;;;7.37;6.27;;;;;;;;;;6195400;28;20197;-68
2023/07/02 05:27:25;;;;;;;9.47;7.03;;;;;;;;;;6170298;28;20291;-69
2023/07/02 05:30:26;;;;;;;7.83;7.13;;;;;;;;;;6180050;28;20204;-70
2023/07/02 05:33:27;;;;;;;7.73;7.00;;;;;;;;;;6177167;28;20226;-70
2023/07/02 05:36:28;;;;;;;7.23;6.63;;;;;;;;;;6190177;28;20195;-69
2023/07/02 05:39:30;;;;;;;7.53;6.73;;;;;;;;;;6171158;28;20255;-70
2023/07/02 05:42:31;;;;;;;7.73;7.00;;;;;;;;;;6182781;28;20192;-68
2023/07/02 05:45:32;;;;;;;8.10;7.20;;;;;;;;;;6175014;28;20551;-69
2023/07/02 05:48:33;;;;;;;9.60;7.27;;;;;;;;;;6183275;28;20277;-67
2023/07/02 05:51:34;;;;;;;7.60;6.90;;;;;;;;;;6168187;28;20196;-68
2023/07/02 05:54:35;;;;;;;7.23;6.53;;;;;;;;;;6184283;28;20212;-68
2023/07/02 05:57:37;;;;;;;8.37;7.57;;;;;;;;;;6192606;28;20242;-68
2023/07/02 06:00:41;;;;;;;8.27;7.47;;;;;;;;;;6193729;28;20259;-68
2023/07/02 06:03:45;;;;;;;8.10;7.30;;;;;;;;;;6182470;28;20205;-68
2023/07/02 06:06:46;;;;;;;7.90;7.20;;;;;;;;;;6188257;28;20215;-69
2023/07/02 06:09:47;;;;;;;8.07;7.37;;;;;;;;;;6175861;28;20196;-67
2023/07/02 06:12:48;;;;;;;8.57;7.60;;;;;;;;;;6192219;28;20196;-65
2023/07/02 06:15:49;;;;;;;9.10;8.30;;;;;;;;;;6188261;28;20309;-69
2023/07/02 06:18:50;;;;;;;9.10;8.10;;;;;;;;;;6176991;28;20194;-69
2023/07/02 06:21:51;;;;;;;9.13;8.30;;;;;;;;;;6180044;28;20214;-69
2023/07/02 06:24:52;;;;;;;10.73;9.03;;;;;;;;;;6181618;28;20211;-68
2023/07/02 06:27:55;;;;;;;9.37;8.47;;;;;;;;;;6189593;28;20204;-67
2023/07/02 06:30:56;;;;;;;9.00;8.10;;;;;;;;;;6185844;28;20200;-69
2023/07/02 06:33:57;;;;;;;9.30;8.40;;;;;;;;;;6176710;28;20310;-70
2023/07/02 06:36:58;;;;;;;9.00;8.10;;;;;;;;;;6164161;28;20247;-70
2023/07/02 06:39:59;;;;;;;9.70;8.80;;;;;;;;;;6177437;28;20200;-70
2023/07/02 06:43:00;;;;;;;9.93;8.40;;;;;;;;;;6177950;28;20231;-70
2023/07/02 06:46:01;;;;;;;9.30;8.43;;;;;;;;;;6171507;28;20229;-70
2023/07/02 06:49:02;;;;;;;9.30;7.80;;;;;;;;;;6186745;28;20197;-70
2023/07/02 06:52:04;;;;;;;9.27;8.37;;;;;;;;;;6178041;28;20211;-70
2023/07/02 06:55:05;;;;;;;8.90;8.10;;;;;;;;;;6184287;28;20222;-70
2023/07/02 06:58:06;;;;;;;8.83;7.93;;;;;;;;;;6173874;28;20192;-71
2023/07/02 07:01:08;;;;;;;8.80;7.90;;;;;;;;;;6204627;28;20226;-68
2023/07/02 07:04:09;;;;;;;7.70;7.07;;;;;;;;;;6183252;28;20203;-69
2023/07/02 07:07:10;;;;;;;8.50;7.80;;;;;;;;;;6182471;28;20195;-69
2023/07/02 07:10:11;;;;;;;8.33;7.57;;;;;;;;;;6182466;28;20199;-70
2023/07/02 07:13:12;;;;;;;7.80;7.10;;;;;;;;;;6193887;28;20194;-69
2023/07/02 07:16:13;;;;;;;8.37;7.53;;;;;;;;;;6190188;28;20227;-69
2023/07/02 07:19:14;;;;;;;7.50;6.10;;;;;;;;;;6184130;28;20199;-68
2023/07/02 07:22:15;;;;;;;6.90;6.30;;;;;;;;;;6170135;28;20224;-69
2023/07/02 07:25:16;;;;;;;6.80;6.10;;;;;;;;;;6182293;28;20224;-69
2023/07/02 07:28:17;;;;;;;6.33;5.40;;;;;;;;;;6178443;28;20253;-69
2023/07/02 07:31:18;;;;;;;7.20;6.60;;;;;;;;;;6185823;28;20199;-68
2023/07/02 07:34:19;;;;;;;7.63;6.83;;;;;;;;;;6182181;28;20215;-69
2023/07/02 07:37:20;;;;;;;7.23;6.53;;;;;;;;;;6184396;28;20202;-69
2023/07/02 07:40:21;;;;;;;7.03;6.37;;;;;;;;;;6177140;28;20196;-70
2023/07/02 07:43:22;;;;;;;7.50;6.77;;;;;;;;;;6193388;28;20192;-70
2023/07/02 07:46:23;;;;;;;6.97;6.37;;;;;;;;;;6173057;28;20199;-69
2023/07/02 07:49:24;;;;;;;6.10;5.50;;;;;;;;;;6186328;28;20286;-67
2023/07/02 07:52:25;;;;;;;5.73;5.23;;;;;;;;;;6185341;28;20206;-68
2023/07/02 07:55:26;;;;;;;5.80;5.20;;;;;;;;;;6170291;28;20219;-69
2023/07/02 07:58:27;;;;;;;5.97;5.43;;;;;;;;;;6198136;28;20196;-68
2023/07/02 08:01:29;;;;;;;5.90;5.40;;;;;;;;;;6194096;28;20199;-68
2023/07/02 08:04:30;;;;;;;5.87;5.30;;;;;;;;;;6186336;28;20207;-68
2023/07/02 08:07:32;;;;;;;5.80;5.30;;;;;;;;;;6189222;28;20195;-68
2023/07/02 08:10:33;;;;;;;6.07;5.47;;;;;;;;;;6192049;28;20234;-69
2023/07/02 08:13:34;;;;;;;5.30;4.80;;;;;;;;;;6195701;28;20221;-68
2023/07/02 08:16:35;;;;;;;6.80;4.77;;;;;;;;;;6186966;28;20295;-68
2023/07/02 08:19:36;;;;;;;5.90;5.30;;;;;;;;;;6175642;28;20538;-69
2023/07/02 08:22:40;;;;;;;5.50;4.97;;;;;;;;;;6181113;28;20192;-69
2023/07/02 08:25:42;;;;;;;5.50;5.00;;;;;;;;;;6184660;28;20211;-68
2023/07/02 08:28:43;;;;;;;4.50;4.10;;;;;;;;;;6187236;28;20218;-68
2023/07/02 08:31:44;;;;;;;4.70;4.30;;;;;;;;;;6183461;28;20209;-68
2023/07/02 08:34:45;;;;;;;4.10;3.47;;;;;;;;;;6189712;28;20223;-68
2023/07/02 08:37:46;;;;;;;4.03;3.33;;;;;;;;;;6178889;28;20191;-68
2023/07/02 08:40:47;;;;;;;4.23;3.87;;;;;;;;;;6181930;28;20194;-68
2023/07/02 08:43:48;;;;;;;3.30;3.00;;;;;;;;;;6187324;28;20191;-70
2023/07/02 08:46:56;;;;;;;3.10;2.83;;;;;;;;;;6202059;28;20262;-71
2023/07/02 08:49:57;;;;;;;3.10;2.87;;;;;;;;;;6175431;28;20208;-71
2023/07/02 08:52:58;;;;;;;4.33;3.03;;;;;;;;;;6176827;28;20199;-71
2023/07/02 08:55:59;;;;;;;3.20;2.90;;;;;;;;;;6186296;28;20279;-71
2023/07/02 08:59:00;;;;;;;2.90;2.10;;;;;;;;;;6207554;28;20206;-71
2023/07/02 09:02:01;;;;;;;3.10;1.87;;;;;;;;;;6191349;28;20190;-71
2023/07/02 09:05:03;;;;;;;1.40;1.30;;;;;;;;;;6207327;28;20195;-71
2023/07/02 09:08:04;;;;;;;1.40;1.30;;;;;;;;;;6200748;28;20206;-69
2023/07/02 09:11:09;;;;;;;2.13;1.37;;;;;;;;;;6192181;28;20220;-70
2023/07/02 09:14:10;;;;;;;1.40;1.30;;;;;;;;;;6182997;28;20244;-71
2023/07/02 09:17:11;;;;;;;1.20;1.10;;;;;;;;;;6184505;28;20199;-67
2023/07/02 09:20:12;;;;;;;1.20;1.10;;;;;;;;;;6184688;28;20195;-69
2023/07/02 09:23:13;;;;;;;1.27;1.17;;;;;;;;;;6181151;28;20196;-67
2023/07/02 09:26:21;;;;;;;1.13;1.03;;;;;;;;;;6172994;28;20210;-68
2023/07/02 09:29:30;;;;;;;2.00;1.77;;;;;;;;;;6188719;28;20188;-69
2023/07/02 09:32:31;;;;;;;2.00;1.73;;;;;;;;;;6205351;28;20256;-69
2023/07/02 09:35:32;;;;;;;1.80;1.70;;;;;;;;;;6186767;28;20219;-68
2023/07/02 09:38:33;;;;;;;1.30;1.20;;;;;;;;;;6180602;28;20195;-67
2023/07/02 09:41:34;;;;;;;1.27;1.17;;;;;;;;;;6173332;28;20191;-68
2023/07/02 09:44:36;;;;;;;1.43;1.20;;;;;;;;;;6185991;28;20254;-68
2023/07/02 09:47:40;;;;;;;1.63;1.53;;;;;;;;;;6173792;28;20188;-68
2023/07/02 09:50:43;;;;;;;1.23;1.13;;;;;;;;;;6184845;28;20192;-68
2023/07/02 09:53:44;;;;;;;1.50;1.40;;;;;;;;;;6182260;28;20212;-68
2023/07/02 09:56:47;;;;;;;1.50;1.23;;;;;;;;;;6172585;28;20187;-68
2023/07/02 09:59:48;;;;;;;2.10;1.70;;;;;;;;;;6184106;28;20201;-68
2023/07/02 10:02:50;;;;;;;8.63;8.13;;;;;;;;;;6192750;28;20188;-68
2023/07/02 10:05:51;;;;;;;28.67;26.93;;;;;;;;;;6178225;28;20207;-68
2023/07/02 10:08:53;;;;;;;3.30;3.10;;;;;;;;;;6191517;28;20341;-68
2023/07/02 10:11:54;;;;;;;2.80;2.60;;;;;;;;;;6190633;28;20382;-68
2023/07/02 10:14:56;;;;;;;1.87;1.70;;;;;;;;;;6173487;28;20243;-68
2023/07/02 10:18:03;;;;;;;1.80;1.70;;;;;;;;;;6201136;28;20184;-68
2023/07/02 10:21:14;;;;;;;2.13;1.93;;;;;;;;;;6194821;28;20224;-69
2023/07/02 10:24:16;;;;;;;2.20;1.80;;;;;;;;;;6178356;28;20201;-68
2023/07/02 10:27:17;;;;;;;2.47;2.27;;;;;;;;;;6177012;28;20232;-68
2023/07/02 10:30:18;;;;;;;13.03;12.03;;;;;;;;;;6189510;28;20246;-68
2023/07/02 10:33:20;;;;;;;9.30;8.50;;;;;;;;;;6200020;28;20191;-68
2023/07/02 10:36:23;;;;;;;7.87;5.13;;;;;;;;;;6179799;28;20280;-66
2023/07/02 10:39:24;;;;;;;12.67;11.47;;;;;;;;;;6201465;28;20249;-66
2023/07/02 10:42:25;;;;;;;48.77;40.27;;;;;;;;;;6189756;28;20187;-66
2023/07/02 10:45:33;;;;;;;340.80;309.13;;;;;;;;;;6188714;28;20195;-66
2023/07/02 10:48:34;;;;;;;88.63;79.77;;;;;;;;;;6183899;28;20264;-66
2023/07/02 10:51:35;;;;;;;77.80;69.80;;;;;;;;;;6178285;28;20199;-67
2023/07/02 10:54:54;;;;;;;12.57;11.37;;;;;;;;;;6183005;28;20276;-67
2023/07/02 10:58:04;;;;;;;2.70;2.50;;;;;;;;;;6206956;28;20200;-67
2023/07/02 11:01:05;;;;;;;2.77;2.57;;;;;;;;;;6192194;28;20251;-66
2023/07/02 11:04:07;;;;;;;2.87;2.67;;;;;;;;;;6183873;28;20228;-67
2023/07/02 11:07:08;;;;;;;3.63;3.33;;;;;;;;;;6180915;28;20254;-68
2023/07/02 11:10:09;;;;;;;4.53;4.13;;;;;;;;;;6190230;28;20201;-68
2023/07/02 11:13:14;;;;;;;7.63;6.90;;;;;;;;;;6191029;28;20282;-67
2023/07/02 11:16:24;;;;;;;4.13;3.83;;;;;;;;;;6195559;28;20327;-67
2023/07/02 11:19:25;;;;;;;5.20;4.70;;;;;;;;;;6196376;28;20204;-68
2023/07/02 11:22:33;;;;;;;4.57;4.17;;;;;;;;;;6194428;28;20196;-67
2023/07/02 11:25:34;;;;;;;2.83;2.63;;;;;;;;;;6178920;28;20263;-68
2023/07/02 11:28:35;;;;;;;3.80;3.40;;;;;;;;;;6181208;28;20216;-68
2023/07/02 11:31:36;;;;;;;1.80;1.70;;;;;;;;;;6194493;28;20279;-68
2023/07/02 11:34:38;;;;;;;2.67;2.47;;;;;;;;;;6170635;28;20216;-68
2023/07/02 11:37:39;;;;;;;2.10;1.90;;;;;;;;;;6190265;28;20188;-68
2023/07/02 11:40:40;;;;;;;1.83;1.67;;;;;;;;;;6190647;28;20191;-67
2023/07/02 11:43:41;;;;;;;2.20;2.00;;;;;;;;;;6177356;28;20203;-67
2023/07/02 11:46:42;;;;;;;3.60;3.30;;;;;;;;;;6175695;28;20197;-67
2023/07/02 11:49:44;;;;;;;3.00;2.70;;;;;;;;;;6191280;28;20198;-67
2023/07/02 11:52:45;;;;;;;3.20;2.93;;;;;;;;;;6182565;28;20259;-67
2023/07/02 11:55:46;;;;;;;3.70;2.37;;;;;;;;;;6177454;28;20248;-67
2023/07/02 11:58:47;;;;;;;2.50;2.30;;;;;;;;;;6185841;28;20247;-67
2023/07/02 12:01:48;;;;;;;2.33;1.83;;;;;;;;;;6165264;28;20197;-68
2023/07/02 12:04:49;;;;;;;5.10;3.63;;;;;;;;;;6174851;28;20193;-68
2023/07/02 12:07:51;;;;;;;2.17;1.67;;;;;;;;;;6178172;28;20308;-68
2023/07/02 12:10:52;;;;;;;1.53;1.43;;;;;;;;;;6182546;28;20197;-68
2023/07/02 12:13:54;;;;;;;1.20;1.10;;;;;;;;;;6170978;28;20257;-69
2023/07/02 12:16:55;;;;;;;1.73;1.57;;;;;;;;;;6175984;28;20286;-69
2023/07/02 12:19:56;;;;;;;3.07;1.20;;;;;;;;;;6184319;28;20205;-69
2023/07/02 12:22:57;;;;;;;1.67;1.57;;;;;;;;;;6175056;28;20257;-69
2023/07/02 12:25:58;;;;;;;1.20;1.10;;;;;;;;;;6188775;28;20200;-67
2023/07/02 12:28:59;;;;;;;1.53;1.40;;;;;;;;;;6198937;28;20204;-68
2023/07/02 12:32:00;;;;;;;1.60;1.50;;;;;;;;;;6181708;28;20203;-68
2023/07/02 12:35:01;;;;;;;2.23;1.53;;;;;;;;;;6170078;28;20223;-67
2023/07/02 12:38:03;;;;;;;2.07;1.80;;;;;;;;;;6162185;28;20199;-66
2023/07/02 12:41:04;;;;;;;2.53;1.50;;;;;;;;;;6183161;28;20193;-67
2023/07/02 12:44:05;;;;;;;1.73;1.63;;;;;;;;;;6176783;28;20199;-67
2023/07/02 12:47:06;;;;;;;1.70;1.60;;;;;;;;;;6162730;28;20195;-67
2023/07/02 12:50:08;;;;;;;2.30;2.10;;;;;;;;;;6172082;28;20200;-67
2023/07/02 12:53:09;;;;;;;2.27;2.07;;;;;;;;;;6192611;28;20275;-67
2023/07/02 12:56:10;;;;;;;2.20;1.90;;;;;;;;;;6180051;28;20210;-66
2023/07/02 12:59:11;;;;;;;2.30;2.10;;;;;;;;;;6178216;28;20198;-67
2023/07/02 13:02:12;;;;;;;2.03;1.90;;;;;;;;;;6192467;28;20187;-67
2023/07/02 13:05:14;;;;;;;2.10;1.60;;;;;;;;;;6193910;28;20247;-67
2023/07/02 13:08:15;;;;;;;2.23;1.50;;;;;;;;;;6191059;28;20200;-67
2023/07/02 13:11:16;;;;;;;1.50;1.40;;;;;;;;;;6182377;28;20249;-67
2023/07/02 13:14:18;;;;;;;5.80;1.90;;;;;;;;;;6180848;28;20247;-66
2023/07/02 13:17:19;;;;;;;1.73;1.60;;;;;;;;;;6186183;28;20195;-68
2023/07/02 13:20:20;;;;;;;1.20;1.10;;;;;;;;;;6180039;28;20554;-68
2023/07/02 13:23:22;;;;;;;1.53;1.43;;;;;;;;;;6167233;28;20188;-68
2023/07/02 13:26:23;;;;;;;2.00;1.80;;;;;;;;;;6198540;28;20195;-69
2023/07/02 13:29:25;;;;;;;1.83;1.70;;;;;;;;;;6184675;28;20231;-69
2023/07/02 13:32:26;;;;;;;2.93;1.80;;;;;;;;;;6180627;28;20200;-68
2023/07/02 13:35:27;;;;;;;3.13;1.80;;;;;;;;;;6194712;28;20262;-68
2023/07/02 13:38:29;;;;;;;4.63;2.67;;;;;;;;;;6178753;28;20198;-68
2023/07/02 13:41:30;;;;;;;2.50;1.67;;;;;;;;;;6182511;28;20215;-68
2023/07/02 13:44:32;;;;;;;3.93;2.10;;;;;;;;;;6171338;28;20203;-68
2023/07/02 13:47:33;;;;;;;1.83;1.73;;;;;;;;;;6189762;28;20204;-68
2023/07/02 13:50:35;;;;;;;2.13;1.93;;;;;;;;;;6173015;28;20195;-68
2023/07/02 13:53:36;;;;;;;3.20;2.20;;;;;;;;;;6177496;28;20202;-68
2023/07/02 13:56:37;;;;;;;2.47;2.20;;;;;;;;;;6198006;28;20207;-67
2023/07/02 13:59:38;;;;;;;3.63;2.20;;;;;;;;;;6176666;28;20195;-68
2023/07/02 14:02:41;;;;;;;4.67;2.23;;;;;;;;;;6170632;28;20215;-67
2023/07/02 14:05:43;;;;;;;3.43;2.10;;;;;;;;;;6172799;28;20195;-69
2023/07/02 14:08:44;;;;;;;4.93;3.27;;;;;;;;;;6182013;28;20195;-67
2023/07/02 14:11:45;;;;;;;2.23;2.03;;;;;;;;;;6180755;28;20196;-67
2023/07/02 14:14:46;;;;;;;3.40;2.40;;;;;;;;;;6202579;28;20330;-67
2023/07/02 14:17:47;;;;;;;2.97;2.67;;;;;;;;;;6189537;28;20213;-67
2023/07/02 14:20:48;;;;;;;9.43;3.43;;;;;;;;;;6190133;28;20188;-66
2023/07/02 14:23:50;;;;;;;3.30;3.00;;;;;;;;;;6178585;28;20200;-66
2023/07/02 14:26:51;;;;;;;3.53;3.23;;;;;;;;;;6183242;28;20204;-66
2023/07/02 14:29:52;;;;;;;3.00;2.80;;;;;;;;;;6179035;28;20196;-66
2023/07/02 14:32:54;;;;;;;3.10;2.90;;;;;;;;;;6180645;28;20207;-66
2023/07/02 14:35:55;;;;;;;3.20;2.93;;;;;;;;;;6178315;28;20224;-66
2023/07/02 14:38:57;;;;;;;2.93;2.73;;;;;;;;;;6165964;28;20235;-66
2023/07/02 14:41:58;;;;;;;3.70;3.40;;;;;;;;;;6208441;28;20274;-66
2023/07/02 14:45:00;;;;;;;3.67;3.30;;;;;;;;;;6196595;28;20301;-66
2023/07/02 14:48:01;;;;;;;3.63;3.33;;;;;;;;;;6186435;28;20215;-66
2023/07/02 14:51:03;;;;;;;3.60;3.30;;;;;;;;;;6174001;28;20211;-66
2023/07/02 14:54:05;;;;;;;4.17;3.70;;;;;;;;;;6191533;28;20218;-66
2023/07/02 14:57:07;;;;;;;3.60;3.30;;;;;;;;;;6185708;28;20196;-65
2023/07/02 15:00:08;;;;;;;4.30;3.73;;;;;;;;;;6179323;28;20192;-66
2023/07/02 15:03:09;;;;;;;3.50;3.00;;;;;;;;;;6212673;28;20188;-66
2023/07/02 15:06:15;;;;;;;4.13;3.73;;;;;;;;;;6193509;28;20270;-66
2023/07/02 15:09:16;;;;;;;3.77;3.47;;;;;;;;;;6211439;28;20196;-66
2023/07/02 15:12:17;;;;;;;3.63;3.33;;;;;;;;;;6181495;28;20258;-66
2023/07/02 15:15:18;;;;;;;3.83;3.50;;;;;;;;;;6181338;28;20238;-68
2023/07/02 15:18:22;;;;;;;4.13;2.93;;;;;;;;;;6177399;28;20204;-67
2023/07/02 15:21:24;;;;;;;3.53;3.23;;;;;;;;;;6184320;28;20196;-68
2023/07/02 15:24:25;;;;;;;3.53;3.23;;;;;;;;;;6184359;28;20242;-67
2023/07/02 15:27:26;;;;;;;3.40;3.10;;;;;;;;;;6172148;28;20225;-66
2023/07/02 15:30:27;;;;;;;4.20;3.80;;;;;;;;;;6185016;28;20245;-67
2023/07/02 15:33:28;;;;;;;5.00;3.73;;;;;;;;;;6187835;28;20191;-66
2023/07/02 15:36:35;;;;;;;4.57;3.97;;;;;;;;;;6175499;28;20197;-66
2023/07/02 15:39:36;;;;;;;4.20;3.90;;;;;;;;;;6191263;28;20445;-67
2023/07/02 15:42:37;;;;;;;3.93;3.63;;;;;;;;;;6182639;28;20195;-66
2023/07/02 15:45:38;;;;;;;3.20;3.00;;;;;;;;;;6178577;28;20192;-65
2023/07/02 15:48:39;;;;;;;3.53;3.23;;;;;;;;;;6190720;28;20196;-66
2023/07/02 15:51:42;;;;;;;6.97;3.93;;;;;;;;;;6194543;28;20198;-66
2023/07/02 15:54:43;;;;;;;4.03;3.73;;;;;;;;;;6161351;28;20224;-64
2023/07/02 15:57:44;;;;;;;4.87;4.20;;;;;;;;;;6175704;28;20196;-66
2023/07/02 16:00:45;;;;;;;4.37;3.97;;;;;;;;;;6190057;28;20188;-66
2023/07/02 16:03:46;;;;;;;3.43;3.13;;;;;;;;;;6200347;28;20275;-66
2023/07/02 16:06:47;;;;;;;3.90;3.60;;;;;;;;;;6198370;28;20191;-66
2023/07/02 16:09:48;;;;;;;3.43;3.13;;;;;;;;;;6176994;28;20237;-67
2023/07/02 16:12:52;;;;;;;4.60;3.60;;;;;;;;;;6175552;28;20216;-66
2023/07/02 16:15:53;;;;;;;4.23;3.83;;;;;;;;;;6196949;28;20265;-66
2023/07/02 16:18:54;;;;;;;4.17;3.77;;;;;;;;;;6183128;28;20207;-67
2023/07/02 16:21:55;;;;;;;4.87;4.20;;;;;;;;;;6183596;28;20207;-67
2023/07/02 16:24:56;;;;;;;4.73;3.67;;;;;;;;;;6194614;28;20306;-67
2023/07/02 16:27:58;;;;;;;4.30;3.90;;;;;;;;;;6170893;28;20195;-67
2023/07/02 16:30:59;;;;;;;3.97;3.67;;;;;;;;;;6187853;28;20207;-66
2023/07/02 16:34:00;;;;;;;4.40;4.00;;;;;;;;;;6164000;28;20228;-67
2023/07/02 16:37:01;;;;;;;4.20;3.80;;;;;;;;;;6168924;28;20200;-66
2023/07/02 16:40:03;;;;;;;3.97;3.67;;;;;;;;;;6181628;28;20262;-66
2023/07/02 16:43:04;;;;;;;4.23;3.83;;;;;;;;;;6183579;28;20184;-66
2023/07/02 16:46:05;;;;;;;3.73;3.43;;;;;;;;;;6185900;28;20196;-66
2023/07/02 16:49:07;;;;;;;3.97;3.67;;;;;;;;;;6175564;28;20208;-67
2023/07/02 16:52:08;;;;;;;3.77;3.47;;;;;;;;;;6181207;28;20199;-66
2023/07/02 16:55:09;;;;;;;3.73;3.43;;;;;;;;;;6194770;28;20239;-65
2023/07/02 16:58:10;;;;;;;3.77;3.47;;;;;;;;;;6172655;28;20262;-66
2023/07/02 17:01:12;;;;;;;3.77;3.23;;;;;;;;;;6179233;28;20227;-64
2023/07/02 17:04:13;;;;;;;4.60;3.93;;;;;;;;;;6185389;28;20207;-65
2023/07/02 17:07:15;;;;;;;3.70;3.40;;;;;;;;;;6176679;28;20196;-65
2023/07/02 17:10:16;;;;;;;5.43;3.90;;;;;;;;;;6183046;28;20207;-66
2023/07/02 17:13:17;;;;;;;4.10;3.70;;;;;;;;;;6181713;28;20236;-67
2023/07/02 17:16:18;;;;;;;4.63;3.67;;;;;;;;;;6182113;28;20270;-68
2023/07/02 17:19:20;;;;;;;3.90;3.60;;;;;;;;;;6191406;28;20195;-69
2023/07/02 17:22:23;;;;;;;4.30;3.30;;;;;;;;;;6178043;28;21191;-67
2023/07/02 17:25:24;;;;;;;4.80;4.40;;;;;;;;;;6193157;28;20275;-67
2023/07/02 17:28:25;;;;;;;5.40;4.20;;;;;;;;;;6181676;28;20221;-67
2023/07/02 17:31:26;;;;;;;3.90;3.60;;;;;;;;;;6166493;28;20282;-68
2023/07/02 17:34:28;;;;;;;4.00;3.60;;;;;;;;;;6184453;28;20373;-68
2023/07/02 17:37:29;;;;;;;4.23;3.70;;;;;;;;;;6192710;28;20219;-67
2023/07/02 17:40:32;;;;;;;3.83;3.53;;;;;;;;;;6183498;28;20203;-68
2023/07/02 17:43:33;;;;;;;4.30;3.90;;;;;;;;;;6174763;28;20199;-68
2023/07/02 17:46:35;;;;;;;4.10;3.70;;;;;;;;;;6181086;28;20196;-66
2023/07/02 17:49:37;;;;;;;4.20;3.80;;;;;;;;;;6192778;28;20192;-66
2023/07/02 17:52:39;;;;;;;3.80;3.50;;;;;;;;;;6202390;28;20191;-65
2023/07/02 17:55:40;;;;;;;4.30;3.70;;;;;;;;;;6177789;28;20208;-65
2023/07/02 17:58:42;;;;;;;3.93;3.53;;;;;;;;;;6188219;28;20196;-65
2023/07/02 18:01:44;;;;;;;4.77;3.53;;;;;;;;;;6198056;28;20191;-63
2023/07/02 18:04:46;;;;;;;4.00;3.60;;;;;;;;;;6204957;28;20198;-64
2023/07/02 18:07:48;;;;;;;3.90;3.50;;;;;;;;;;6203194;28;20200;-65